createdAt,value
2022-12-16T00:01:29.486Z,90.43
2022-12-16T00:03:59.211Z,92.93
2022-12-16T00:06:31.090Z,98.17
2022-12-16T00:08:59.384Z,96.93
2022-12-16T00:11:26.212Z,92.53
2022-12-16T00:13:52.850Z,92.47
2022-12-16T00:16:21.686Z,89.87
2022-12-16T00:18:48.586Z,84.17
2022-12-16T00:21:17.748Z,90.00
2022-12-16T00:23:44.574Z,82.93
2022-12-16T00:26:12.431Z,86.20
2022-12-16T00:28:40.192Z,80.47
2022-12-16T00:31:07.160Z,87.33
2022-12-16T00:33:34.249Z,83.10
2022-12-16T00:36:01.117Z,85.50
2022-12-16T00:38:27.786Z,83.93
2022-12-16T00:40:54.548Z,89.60
2022-12-16T00:43:22.037Z,92.70
2022-12-16T00:45:49.213Z,90.30
2022-12-16T00:48:16.253Z,89.73
2022-12-16T00:50:50.635Z,88.30
2022-12-16T00:53:20.028Z,93.80
2022-12-16T00:55:46.695Z,85.23
2022-12-16T00:58:14.212Z,90.63
2022-12-16T01:00:41.809Z,97.70
2022-12-16T01:03:08.743Z,90.73
2022-12-16T01:05:38.533Z,88.00
2022-12-16T01:08:05.367Z,93.83
2022-12-16T01:10:31.827Z,85.03
2022-12-16T01:12:58.325Z,92.07
2022-12-16T01:15:24.789Z,85.63
2022-12-16T01:17:51.258Z,89.13
2022-12-16T01:20:17.832Z,87.33
2022-12-16T01:22:44.315Z,95.07
2022-12-16T01:25:14.720Z,84.07
2022-12-16T01:27:41.390Z,87.73
2022-12-16T01:30:09.938Z,85.20
2022-12-16T01:32:36.904Z,86.37
2022-12-16T01:35:10.718Z,90.70
2022-12-16T01:37:44.776Z,93.60
2022-12-16T01:40:22.451Z,83.00
2022-12-16T01:42:49.002Z,93.37
2022-12-16T01:45:32.132Z,93.40
2022-12-16T01:49:37.428Z,100.07
2022-12-16T01:52:09.544Z,89.00
2022-12-16T01:54:49.698Z,90.50
2022-12-16T01:57:28.052Z,86.50
2022-12-16T01:59:55.769Z,84.77
2022-12-16T02:02:23.701Z,91.47
2022-12-16T02:05:08.675Z,85.03
2022-12-16T02:07:35.251Z,88.37
2022-12-16T02:10:02.159Z,100.73
2022-12-16T02:13:30.077Z,85.40
2022-12-16T02:16:23.271Z,92.13
2022-12-16T02:20:05.597Z,99.53
2022-12-16T02:23:22.966Z,92.60
2022-12-16T02:26:52.806Z,86.77
2022-12-16T02:30:06.638Z,84.90
2022-12-16T02:33:18.886Z,89.77
2022-12-16T02:38:56.451Z,84.07
2022-12-16T02:42:00.105Z,81.53
2022-12-16T02:44:47.520Z,89.80
2022-12-16T02:47:13.990Z,88.60
2022-12-16T02:49:49.035Z,88.53
2022-12-16T02:52:19.175Z,92.00
2022-12-16T02:54:47.497Z,91.60
2022-12-16T02:59:48.767Z,89.73
2022-12-16T03:03:27.052Z,79.87
2022-12-16T03:05:57.774Z,89.40
2022-12-16T03:08:37.106Z,87.53
2022-12-16T03:11:07.610Z,90.07
2022-12-16T03:13:51.237Z,89.23
2022-12-16T03:16:25.414Z,90.43
2022-12-16T03:19:00.872Z,83.47
2022-12-16T03:21:37.527Z,92.13
2022-12-16T03:24:12.989Z,90.70
2022-12-16T03:27:25.478Z,88.60
2022-12-16T03:30:17.206Z,81.63
2022-12-16T03:34:52.383Z,94.07
2022-12-16T03:37:24.672Z,86.00
2022-12-16T03:39:55.602Z,84.87
2022-12-16T03:42:23.517Z,92.43
2022-12-16T03:44:50.442Z,92.80
2022-12-16T03:47:21.690Z,92.33
2022-12-16T03:49:50.368Z,94.17
2022-12-16T03:52:16.819Z,90.93
2022-12-16T03:54:43.267Z,88.73
2022-12-16T03:57:15.083Z,92.73
2022-12-16T03:59:42.672Z,85.73
2022-12-16T04:02:09.462Z,86.13
2022-12-16T04:04:36.038Z,88.87
2022-12-16T04:07:20.334Z,90.90
2022-12-16T04:09:51.579Z,90.93
2022-12-16T04:12:37.660Z,88.97
2022-12-16T04:15:24.581Z,94.37
2022-12-16T04:18:09.470Z,75.90
2022-12-16T04:21:00.343Z,88.23
2022-12-16T04:23:48.827Z,97.10
2022-12-16T04:26:15.991Z,88.93
2022-12-16T04:28:42.494Z,92.50
2022-12-16T04:31:09.039Z,93.00
2022-12-16T04:33:54.080Z,94.07
2022-12-16T04:36:38.992Z,91.27
2022-12-16T04:39:23.857Z,89.20
2022-12-16T04:42:13.275Z,90.27
2022-12-16T04:44:58.069Z,92.03
2022-12-16T04:47:43.533Z,91.23
2022-12-16T04:50:28.387Z,97.47
2022-12-16T04:53:13.349Z,93.63
2022-12-16T04:56:03.877Z,92.50
2022-12-16T04:58:49.441Z,91.00
2022-12-16T05:01:34.182Z,90.70
2022-12-16T05:04:18.843Z,96.37
2022-12-16T05:07:03.733Z,84.30
2022-12-16T05:09:48.563Z,77.57
2022-12-16T05:12:33.397Z,91.07
2022-12-16T05:15:18.324Z,88.37
2022-12-16T05:18:03.189Z,93.63
2022-12-16T05:20:48.047Z,95.40
2022-12-16T05:23:33.139Z,97.20
2022-12-16T05:26:18.399Z,88.20
2022-12-16T05:29:03.182Z,93.07
2022-12-16T05:31:48.114Z,92.73
2022-12-16T05:34:32.937Z,87.50
2022-12-16T05:37:17.748Z,95.87
2022-12-16T05:40:02.547Z,92.77
2022-12-16T05:42:47.494Z,96.37
2022-12-16T05:45:32.456Z,97.53
2022-12-16T05:48:17.281Z,100.83
2022-12-16T05:51:02.110Z,94.67
2022-12-16T05:53:46.619Z,94.30
2022-12-16T05:56:31.553Z,95.70
2022-12-16T05:59:16.432Z,87.30
2022-12-16T06:02:01.458Z,90.93
2022-12-16T06:04:46.091Z,93.27
2022-12-16T06:07:30.978Z,87.30
2022-12-16T06:10:15.863Z,96.80
2022-12-16T06:13:05.303Z,96.37
2022-12-16T06:15:50.292Z,95.83
2022-12-16T06:18:35.130Z,90.50
2022-12-16T06:21:19.992Z,86.33
2022-12-16T06:24:04.937Z,80.70
2022-12-16T06:26:49.825Z,85.63
2022-12-16T06:29:34.792Z,87.33
2022-12-16T06:32:19.630Z,96.37
2022-12-16T06:35:04.466Z,100.70
2022-12-16T06:37:49.319Z,100.37
2022-12-16T06:40:33.856Z,104.87
2022-12-16T06:43:18.700Z,101.67
2022-12-16T06:46:03.770Z,103.20
2022-12-16T06:48:48.309Z,104.23
2022-12-16T06:53:06.475Z,90.57
2022-12-16T06:55:51.494Z,97.03
2022-12-16T06:58:36.403Z,94.13
2022-12-16T07:01:21.508Z,89.97
2022-12-16T07:04:06.200Z,89.07
2022-12-16T07:06:51.126Z,93.37
2022-12-16T07:09:35.952Z,97.77
2022-12-16T07:12:20.845Z,95.97
2022-12-16T07:15:05.834Z,104.00
2022-12-16T07:17:50.699Z,107.30
2022-12-16T07:20:35.315Z,118.97
2022-12-16T07:23:20.253Z,118.53
2022-12-16T07:26:05.243Z,121.10
2022-12-16T07:28:50.092Z,125.37
2022-12-16T07:31:35.107Z,115.83
2022-12-16T07:36:51.984Z,100.37
2022-12-16T07:39:37.004Z,113.57
2022-12-16T07:42:21.951Z,113.13
2022-12-16T07:45:07.026Z,113.10
2022-12-16T07:47:51.855Z,106.83
2022-12-16T07:50:39.937Z,101.40
2022-12-16T07:53:31.095Z,96.73
2022-12-16T07:56:16.469Z,95.57
2022-12-16T07:59:01.350Z,102.90
2022-12-16T08:01:46.385Z,95.20
2022-12-16T08:04:31.060Z,102.17
2022-12-16T08:07:15.891Z,93.00
2022-12-16T08:10:00.717Z,88.37
2022-12-16T08:12:45.575Z,86.67
2022-12-16T08:15:30.463Z,93.83
2022-12-16T08:18:15.324Z,111.20
2022-12-16T08:21:00.375Z,109.43
2022-12-16T08:23:45.152Z,100.93
2022-12-16T08:26:30.191Z,106.53
2022-12-16T08:29:42.556Z,101.13
2022-12-16T08:32:29.025Z,95.33
2022-12-16T08:35:13.869Z,101.90
2022-12-16T08:37:58.694Z,90.40
2022-12-16T08:40:43.506Z,101.37
2022-12-16T08:43:28.378Z,94.23
2022-12-16T08:46:14.146Z,100.23
2022-12-16T08:48:59.024Z,98.50
2022-12-16T08:51:43.965Z,90.53
2022-12-16T08:54:28.896Z,100.10
2022-12-16T08:57:13.896Z,97.97
2022-12-16T09:00:01.225Z,94.03
2022-12-16T09:02:46.644Z,98.47
2022-12-16T09:05:31.396Z,91.33
2022-12-16T09:08:20.747Z,92.50
2022-12-16T09:11:05.793Z,95.40
2022-12-16T09:13:50.801Z,96.13
2022-12-16T09:16:36.229Z,89.20
2022-12-16T09:19:21.297Z,95.87
2022-12-16T09:22:06.178Z,100.67
2022-12-16T09:24:51.269Z,89.63
2022-12-16T09:27:36.063Z,86.40
2022-12-16T09:30:21.044Z,92.37
2022-12-16T09:33:05.891Z,87.43
2022-12-16T09:35:50.855Z,87.07
2022-12-16T09:39:50.832Z,92.60
2022-12-16T09:44:33.103Z,92.20
2022-12-16T09:50:46.358Z,99.87
2022-12-16T09:53:40.229Z,100.93
2022-12-16T09:56:40.746Z,91.93
2022-12-16T09:59:39.555Z,89.23
2022-12-16T10:02:34.663Z,74.00
2022-12-16T10:05:20.785Z,91.50
2022-12-16T10:08:43.888Z,88.23
2022-12-16T10:12:30.376Z,87.10
2022-12-16T10:18:02.693Z,78.93
2022-12-16T10:21:09.687Z,95.97
2022-12-16T10:24:28.295Z,112.03
2022-12-16T10:29:10.193Z,92.10
2022-12-16T10:31:56.333Z,97.20
2022-12-16T10:34:53.316Z,92.33
2022-12-16T10:37:58.631Z,92.93
2022-12-16T10:40:50.062Z,86.87
2022-12-16T10:43:56.018Z,92.03
2022-12-16T10:46:47.067Z,93.37
2022-12-16T10:49:34.200Z,100.80
2022-12-16T10:52:19.925Z,91.50
2022-12-16T10:58:43.101Z,105.27
2022-12-16T11:01:45.282Z,88.90
2022-12-16T11:04:56.101Z,86.57
2022-12-16T11:07:52.088Z,100.43
2022-12-16T11:12:49.310Z,92.57
2022-12-16T11:16:43.894Z,88.50
2022-12-16T11:19:45.985Z,93.00
2022-12-16T11:22:37.399Z,85.20
2022-12-16T11:25:38.521Z,93.30
2022-12-16T11:28:30.981Z,75.83
2022-12-16T11:31:22.621Z,90.50
2022-12-16T11:34:09.811Z,92.83
2022-12-16T11:36:58.103Z,74.27
2022-12-16T11:39:46.914Z,80.03
2022-12-16T11:42:49.572Z,72.50
2022-12-16T11:45:38.555Z,77.07
2022-12-16T11:49:01.727Z,73.93
2022-12-16T11:51:56.824Z,74.50
2022-12-16T11:54:54.986Z,66.63
2022-12-16T11:58:15.128Z,74.93
2022-12-16T12:01:14.520Z,77.67
2022-12-16T12:04:04.559Z,84.47
2022-12-16T12:07:34.768Z,83.30
2022-12-16T12:11:48.180Z,91.87
2022-12-16T12:15:04.758Z,96.50
2022-12-16T12:18:22.906Z,84.90
2022-12-16T12:21:52.794Z,82.27
2022-12-16T12:25:10.755Z,84.63
2022-12-16T12:30:38.841Z,90.80
2022-12-16T12:39:46.415Z,95.33
2022-12-16T12:43:00.681Z,106.43
2022-12-16T12:46:51.253Z,99.47
2022-12-16T12:50:08.009Z,108.33
2022-12-16T12:53:47.788Z,99.17
2022-12-16T12:57:07.836Z,84.40
2022-12-16T13:00:23.621Z,77.37
2022-12-16T13:03:47.531Z,71.53
2022-12-16T13:06:38.022Z,79.10
2022-12-16T13:09:55.291Z,83.50
2022-12-16T13:12:50.370Z,79.33
2022-12-16T13:15:57.133Z,74.07
2022-12-16T13:18:50.219Z,80.00
2022-12-16T13:24:06.409Z,82.33
2022-12-16T13:26:53.233Z,80.60
2022-12-16T13:29:47.190Z,83.53
2022-12-16T13:32:45.528Z,83.87
2022-12-16T13:35:36.132Z,87.77
2022-12-16T13:38:39.845Z,78.43
2022-12-16T13:42:06.891Z,87.90
2022-12-16T13:46:02.549Z,86.67
2022-12-16T13:48:59.208Z,84.93
2022-12-16T13:53:17.881Z,77.93
2022-12-16T13:56:19.104Z,78.30
2022-12-16T13:59:23.382Z,91.70
2022-12-16T14:02:19.344Z,91.73
2022-12-16T14:07:46.168Z,99.93
2022-12-16T14:10:52.675Z,96.77
2022-12-16T14:15:23.009Z,96.20
2022-12-16T14:18:24.991Z,104.97
2022-12-16T14:21:18.382Z,93.83
2022-12-16T14:25:58.167Z,91.37
2022-12-16T14:28:57.571Z,93.43
2022-12-16T14:31:53.379Z,101.60
2022-12-16T14:34:48.004Z,98.53
2022-12-16T14:37:51.673Z,98.97
2022-12-16T14:40:41.023Z,107.07
2022-12-16T14:43:38.907Z,100.30
2022-12-16T14:46:40.877Z,97.43
2022-12-16T14:49:42.883Z,104.83
2022-12-16T14:52:40.603Z,95.90
2022-12-16T14:55:34.880Z,98.80
2022-12-16T14:58:35.399Z,100.37
2022-12-16T15:01:44.078Z,98.27
2022-12-16T15:04:39.847Z,91.23
2022-12-16T15:07:33.268Z,99.07
2022-12-16T15:10:19.018Z,109.43
2022-12-16T15:13:06.899Z,104.47
2022-12-16T15:16:10.119Z,114.47
2022-12-16T15:19:03.624Z,112.03
2022-12-16T15:21:52.177Z,100.40
2022-12-16T15:24:43.285Z,116.37
2022-12-16T15:28:12.673Z,102.67
2022-12-16T15:31:03.281Z,105.23
2022-12-16T15:33:55.226Z,95.33
2022-12-16T15:36:53.764Z,94.70
2022-12-16T15:39:51.408Z,106.33
2022-12-16T15:42:48.476Z,106.23
2022-12-16T15:45:50.312Z,103.23
2022-12-16T15:48:44.480Z,118.97
2022-12-16T15:51:50.191Z,118.00
2022-12-16T15:54:42.850Z,103.93
2022-12-16T15:57:52.355Z,112.90
2022-12-16T16:00:48.985Z,99.93
2022-12-16T16:03:48.003Z,96.20
2022-12-16T16:06:42.964Z,96.67
2022-12-16T16:09:49.576Z,91.97
2022-12-16T16:12:37.731Z,110.00
2022-12-16T16:15:26.151Z,91.97
2022-12-16T16:18:18.409Z,97.00
2022-12-16T16:21:03.344Z,92.80
2022-12-16T16:23:48.334Z,88.03
2022-12-16T16:26:37.556Z,96.73
2022-12-16T16:29:22.938Z,89.83
2022-12-16T16:32:07.945Z,94.73
2022-12-16T16:34:52.822Z,101.53
2022-12-16T16:37:39.394Z,113.60
2022-12-16T16:40:48.876Z,111.17
2022-12-16T16:43:34.113Z,108.77
2022-12-16T16:46:20.263Z,93.70
2022-12-16T16:49:05.378Z,106.93
2022-12-16T16:51:49.862Z,89.57
2022-12-16T16:54:34.678Z,86.23
2022-12-16T16:57:19.875Z,98.17
2022-12-16T17:00:04.630Z,98.13
2022-12-16T17:02:49.571Z,97.73
2022-12-16T17:05:34.222Z,84.57
2022-12-16T17:08:19.181Z,87.40
2022-12-16T17:11:05.072Z,86.20
2022-12-16T17:13:49.910Z,94.03
2022-12-16T17:16:34.869Z,91.80
2022-12-16T17:19:20.585Z,88.50
2022-12-16T17:22:05.384Z,82.43
2022-12-16T17:24:53.928Z,87.90
2022-12-16T17:27:42.720Z,90.00
2022-12-16T17:30:45.181Z,91.17
2022-12-16T17:33:33.779Z,80.87
2022-12-16T17:36:19.052Z,90.73
2022-12-16T17:39:04.984Z,93.03
2022-12-16T17:41:51.863Z,98.30
2022-12-16T17:47:07.992Z,91.93
2022-12-16T17:49:53.959Z,93.40
2022-12-16T17:52:38.807Z,87.83
2022-12-16T17:55:24.202Z,95.73
2022-12-16T17:58:09.007Z,95.00
2022-12-16T18:00:53.958Z,104.83
2022-12-16T18:03:39.401Z,104.43
2022-12-16T18:06:25.308Z,91.90
2022-12-16T18:09:10.270Z,96.27
2022-12-16T18:11:55.121Z,107.70
2022-12-16T18:14:39.937Z,99.13
2022-12-16T18:17:24.801Z,101.87
2022-12-16T18:20:09.608Z,112.60
2022-12-16T18:22:54.487Z,103.33
2022-12-16T18:25:39.482Z,112.50
2022-12-16T18:28:24.144Z,109.97
2022-12-16T18:31:09.109Z,124.57
2022-12-16T18:33:53.945Z,115.23
2022-12-16T18:36:38.757Z,121.60
2022-12-16T18:41:55.033Z,121.00
2022-12-16T18:44:40.672Z,111.67
2022-12-16T18:48:58.791Z,105.73
2022-12-16T18:51:43.792Z,114.50
2022-12-16T18:54:28.592Z,120.17
2022-12-16T18:57:13.419Z,123.97
2022-12-16T18:59:57.928Z,135.20
2022-12-16T19:02:42.517Z,134.53
2022-12-16T19:05:27.217Z,120.50
2022-12-16T19:08:14.469Z,116.27
2022-12-16T19:10:59.827Z,102.33
2022-12-16T19:13:44.646Z,115.90
2022-12-16T19:16:29.600Z,107.73
2022-12-16T19:24:02.624Z,111.57
2022-12-16T19:26:47.509Z,115.53
2022-12-16T19:29:32.349Z,120.10
2022-12-16T19:32:17.263Z,121.47
2022-12-16T19:35:02.149Z,103.80
2022-12-16T19:37:47.031Z,104.30
2022-12-16T19:40:31.817Z,80.37
2022-12-16T19:43:16.874Z,89.20
2022-12-16T19:46:01.758Z,83.33
2022-12-16T19:48:46.704Z,99.93
2022-12-16T19:51:31.726Z,116.17
2022-12-16T19:54:16.538Z,107.87
2022-12-16T19:57:00.956Z,132.43
2022-12-16T19:59:45.803Z,126.87
2022-12-16T20:02:30.965Z,118.47
2022-12-16T20:05:16.190Z,113.20
2022-12-16T20:08:01.049Z,113.43
2022-12-16T20:10:45.929Z,105.93
2022-12-16T20:14:43.463Z,117.37
2022-12-16T20:17:28.768Z,116.30
2022-12-16T20:20:13.831Z,104.60
2022-12-16T20:22:58.687Z,110.80
2022-12-16T20:25:44.259Z,98.30
2022-12-16T20:28:29.468Z,101.00
2022-12-16T20:31:21.402Z,89.87
2022-12-16T20:34:15.501Z,96.50
2022-12-16T20:38:12.300Z,95.43
2022-12-16T20:40:57.083Z,94.83
2022-12-16T20:43:42.720Z,89.67
2022-12-16T20:46:27.955Z,95.40
2022-12-16T20:49:12.814Z,90.23
2022-12-16T20:51:57.629Z,108.00
2022-12-16T20:54:42.407Z,100.50
2022-12-16T20:57:27.224Z,106.43
2022-12-16T21:00:11.731Z,113.00
2022-12-16T21:02:56.776Z,102.17
2022-12-16T21:05:41.655Z,98.57
2022-12-16T21:08:26.648Z,122.03
2022-12-16T21:11:15.009Z,106.77
2022-12-16T21:13:59.800Z,96.77
2022-12-16T21:16:44.697Z,97.50
2022-12-16T21:19:33.329Z,99.33
2022-12-16T21:22:18.696Z,96.93
2022-12-16T21:25:03.581Z,90.87
2022-12-16T21:27:48.457Z,96.20
2022-12-16T21:30:33.353Z,91.47
2022-12-16T21:33:17.854Z,94.07
2022-12-16T21:36:10.385Z,97.07
2022-12-16T21:38:56.098Z,105.63
2022-12-16T21:41:40.904Z,104.40
2022-12-16T21:44:25.735Z,95.87
2022-12-16T21:47:10.553Z,100.03
2022-12-16T21:49:56.075Z,104.53
2022-12-16T21:52:40.920Z,97.83
2022-12-16T21:55:25.911Z,94.67
2022-12-16T21:58:10.862Z,92.70
2022-12-16T22:00:58.920Z,95.80
2022-12-16T22:03:51.955Z,104.37
2022-12-16T22:06:36.830Z,111.67
2022-12-16T22:09:21.948Z,105.47
2022-12-16T22:12:06.861Z,103.23
2022-12-16T22:14:51.875Z,97.17
2022-12-16T22:17:36.941Z,91.00
2022-12-16T22:20:22.758Z,89.40
2022-12-16T22:24:40.898Z,85.80
2022-12-16T22:27:25.728Z,83.90
2022-12-16T22:30:10.666Z,79.67
2022-12-16T22:32:56.621Z,87.90
2022-12-16T22:35:44.457Z,87.93
2022-12-16T22:38:29.270Z,96.63
2022-12-16T22:41:16.057Z,97.93
2022-12-16T22:44:01.029Z,88.33
2022-12-16T22:46:46.432Z,97.07
2022-12-16T22:49:31.464Z,96.57
2022-12-16T22:52:16.314Z,96.17
2022-12-16T22:55:01.647Z,99.17
2022-12-16T22:57:51.044Z,87.53
2022-12-16T23:00:38.504Z,101.07
2022-12-16T23:03:23.489Z,102.80
2022-12-16T23:06:08.463Z,98.47
2022-12-16T23:08:54.399Z,84.67
2022-12-16T23:11:51.885Z,93.50
2022-12-16T23:14:42.586Z,95.07
2022-12-16T23:17:29.514Z,102.30
2022-12-16T23:20:14.336Z,89.30
2022-12-16T23:22:59.208Z,97.57
2022-12-16T23:25:44.188Z,107.27
2022-12-16T23:28:28.997Z,92.73
2022-12-16T23:31:15.526Z,100.57
2022-12-16T23:32:29.603Z,109.80
2022-12-16T23:34:00.987Z,104.73
2022-12-16T23:36:45.907Z,103.53
2022-12-16T23:39:30.763Z,102.97
2022-12-16T23:42:15.601Z,102.93
2022-12-16T23:45:01.688Z,101.87
2022-12-16T23:47:46.315Z,97.63
2022-12-16T23:50:31.150Z,103.90
2022-12-16T23:53:28.077Z,99.77
2022-12-16T23:56:15.497Z,103.07
2022-12-16T23:59:00.505Z,113.13
